createdAt,value
2017-12-15T00:00:27.117Z,97947.27
2017-12-15T00:01:32.828Z,97943.72
2017-12-15T00:02:38.565Z,97948.41
2017-12-15T00:03:44.285Z,97959.27
2017-12-15T00:04:50.340Z,97960.56
2017-12-15T00:05:56.064Z,97953.75
2017-12-15T00:07:01.866Z,97960.23
2017-12-15T00:08:07.783Z,97953.75
2017-12-15T00:09:13.519Z,97952.50
2017-12-15T00:10:18.355Z,97949.91
2017-12-15T00:11:24.114Z,97953.75
2017-12-15T00:12:29.831Z,97949.88
2017-12-15T00:13:35.585Z,97956.80
2017-12-15T00:14:41.320Z,97950.95
2017-12-15T00:15:47.060Z,97957.63
2017-12-15T00:16:52.796Z,97949.77
2017-12-15T00:17:58.515Z,97954.70
2017-12-15T00:19:04.247Z,97948.84
2017-12-15T00:20:09.991Z,97945.16
2017-12-15T00:21:15.704Z,97939.89
2017-12-15T00:22:22.182Z,97933.96
2017-12-15T00:23:27.898Z,97934.53
2017-12-15T00:24:34.423Z,97932.95
2017-12-15T00:25:40.137Z,97929.22
2017-12-15T00:26:45.874Z,97926.64
2017-12-15T00:27:51.925Z,97931.44
2017-12-15T00:28:57.648Z,97925.92
2017-12-15T00:30:03.514Z,97925.58
2017-12-15T00:31:09.249Z,97922.74
2017-12-15T00:32:15.009Z,97919.02
2017-12-15T00:33:20.735Z,97918.64
2017-12-15T00:34:26.479Z,97914.13
2017-12-15T00:35:32.240Z,97913.37
2017-12-15T00:36:37.988Z,97911.61
2017-12-15T00:37:43.393Z,97909.44
2017-12-15T00:38:49.161Z,97904.92
2017-12-15T00:39:56.409Z,97907.51
2017-12-15T00:41:02.231Z,97906.80
2017-12-15T00:42:08.052Z,97901.16
2017-12-15T00:43:14.308Z,97912.40
2017-12-15T00:44:20.801Z,97905.92
2017-12-15T00:45:26.520Z,97903.75
2017-12-15T00:46:33.055Z,97903.80
2017-12-15T00:47:38.831Z,97899.87
2017-12-15T00:48:44.567Z,97900.24
2017-12-15T00:49:49.963Z,97901.25
2017-12-15T00:50:55.968Z,97897.37
2017-12-15T00:52:01.712Z,97895.66
2017-12-15T00:53:07.433Z,97896.53
2017-12-15T00:54:13.144Z,97896.75
2017-12-15T00:55:18.865Z,97891.53
2017-12-15T00:56:24.600Z,97901.05
2017-12-15T00:57:30.358Z,97898.42
2017-12-15T00:58:36.856Z,97888.56
2017-12-15T00:59:42.598Z,97892.41
2017-12-15T01:00:48.317Z,97901.39
2017-12-15T01:01:54.796Z,97897.05
2017-12-15T01:03:00.532Z,97894.37
2017-12-15T01:04:05.928Z,97899.84
2017-12-15T01:05:13.171Z,97903.27
2017-12-15T01:06:18.916Z,97901.02
2017-12-15T01:07:24.663Z,97898.09
2017-12-15T01:08:30.423Z,97893.00
2017-12-15T01:09:36.136Z,97895.66
2017-12-15T01:10:41.867Z,97888.31
2017-12-15T01:11:47.589Z,97890.83
2017-12-15T01:12:53.328Z,97890.06
2017-12-15T01:13:58.756Z,97886.72
2017-12-15T01:15:05.246Z,97893.07
2017-12-15T01:16:10.986Z,97890.48
2017-12-15T01:17:16.718Z,97889.98
2017-12-15T01:18:22.434Z,97886.11
2017-12-15T01:19:28.951Z,97885.80
2017-12-15T01:20:34.734Z,97880.16
2017-12-15T01:21:41.221Z,97877.20
2017-12-15T01:22:46.967Z,97868.22
2017-12-15T01:23:52.699Z,97877.23
2017-12-15T01:24:58.858Z,97869.05
2017-12-15T01:26:04.596Z,97870.34
2017-12-15T01:27:10.302Z,97873.27
2017-12-15T01:28:16.808Z,97870.98
2017-12-15T01:29:22.546Z,97869.39
2017-12-15T01:30:28.298Z,97871.81
2017-12-15T01:31:34.024Z,97866.75
2017-12-15T01:32:39.758Z,97867.80
2017-12-15T01:33:45.483Z,97868.68
2017-12-15T01:34:51.215Z,97870.68
2017-12-15T01:35:57.724Z,97875.48
2017-12-15T01:37:03.521Z,97875.98
2017-12-15T01:38:09.413Z,97872.52
2017-12-15T01:39:15.131Z,97872.15
2017-12-15T01:40:21.256Z,97877.95
2017-12-15T01:41:27.432Z,97880.08
2017-12-15T01:42:33.161Z,97881.50
2017-12-15T01:43:38.888Z,97884.55
2017-12-15T01:44:44.773Z,97887.14
2017-12-15T01:45:50.511Z,97893.19
2017-12-15T01:46:56.247Z,97888.97
2017-12-15T01:48:02.299Z,97896.78
2017-12-15T01:49:08.033Z,97891.90
2017-12-15T01:50:13.826Z,97887.55
2017-12-15T01:51:20.136Z,97897.08
2017-12-15T01:52:25.545Z,97895.44
2017-12-15T01:53:31.276Z,97895.86
2017-12-15T01:54:37.804Z,97898.45
2017-12-15T01:55:43.724Z,97894.31
2017-12-15T01:56:50.551Z,97904.79
2017-12-15T01:57:56.335Z,97894.68
2017-12-15T01:59:02.063Z,97893.08
2017-12-15T02:00:07.802Z,97894.84
2017-12-15T02:01:13.534Z,97892.05
2017-12-15T02:02:19.664Z,97891.17
2017-12-15T02:03:26.173Z,97896.72
2017-12-15T02:04:31.912Z,97895.02
2017-12-15T02:05:37.646Z,97893.72
2017-12-15T02:06:43.370Z,97894.43
2017-12-15T02:07:49.102Z,97890.17
2017-12-15T02:08:54.863Z,97886.50
2017-12-15T02:10:00.603Z,97881.66
2017-12-15T02:11:06.744Z,97880.32
2017-12-15T02:12:12.459Z,97877.61
2017-12-15T02:13:18.200Z,97878.36
2017-12-15T02:14:24.010Z,97877.03
2017-12-15T02:15:29.746Z,97873.52
2017-12-15T02:16:35.460Z,97869.93
2017-12-15T02:17:41.171Z,97870.52
2017-12-15T02:18:46.946Z,97865.00
2017-12-15T02:19:52.689Z,97866.59
2017-12-15T02:20:58.419Z,97864.50
2017-12-15T02:22:04.159Z,97862.33
2017-12-15T02:23:09.974Z,97865.09
2017-12-15T02:24:15.712Z,97860.87
2017-12-15T02:25:22.213Z,97861.86
2017-12-15T02:26:27.944Z,97861.53
2017-12-15T02:27:33.682Z,97855.14
2017-12-15T02:28:39.601Z,97861.36
2017-12-15T02:29:45.318Z,97855.38
2017-12-15T02:30:51.059Z,97860.14
2017-12-15T02:31:57.173Z,97857.19
2017-12-15T02:33:03.678Z,97858.44
2017-12-15T02:34:09.418Z,97857.19
2017-12-15T02:35:15.210Z,97861.44
2017-12-15T02:36:21.137Z,97864.11
2017-12-15T02:37:26.517Z,97863.66
2017-12-15T02:38:32.236Z,97867.03
2017-12-15T02:39:38.731Z,97862.27
2017-12-15T02:40:44.476Z,97866.66
2017-12-15T02:41:50.233Z,97869.67
2017-12-15T02:42:55.959Z,97864.08
2017-12-15T02:44:01.695Z,97866.16
2017-12-15T02:45:07.476Z,97871.30
2017-12-15T02:46:13.204Z,97871.72
2017-12-15T02:47:19.038Z,97872.84
2017-12-15T02:48:24.568Z,97871.97
2017-12-15T02:49:32.317Z,97871.80
2017-12-15T02:50:38.083Z,97874.66
2017-12-15T02:51:43.812Z,97874.15
2017-12-15T02:52:49.552Z,97875.81
2017-12-15T02:53:55.284Z,97877.53
2017-12-15T02:55:00.994Z,97880.58
2017-12-15T02:56:06.729Z,97873.23
2017-12-15T02:57:12.462Z,97877.95
2017-12-15T02:58:18.217Z,97876.83
2017-12-15T02:59:23.928Z,97872.48
2017-12-15T03:00:29.693Z,97871.48
2017-12-15T03:01:35.429Z,97876.54
2017-12-15T03:02:41.167Z,97874.73
2017-12-15T03:03:46.919Z,97869.77
2017-12-15T03:04:52.653Z,97872.16
2017-12-15T03:05:59.156Z,97874.29
2017-12-15T03:07:04.911Z,97872.16
2017-12-15T03:08:10.628Z,97873.91
2017-12-15T03:09:17.155Z,97878.63
2017-12-15T03:10:21.961Z,97881.01
2017-12-15T03:11:27.690Z,97874.58
2017-12-15T03:12:33.404Z,97873.32
2017-12-15T03:13:39.126Z,97872.07
2017-12-15T03:14:45.629Z,97876.21
2017-12-15T03:15:51.341Z,97874.87
2017-12-15T03:16:57.067Z,97871.45
2017-12-15T03:18:03.570Z,97874.41
2017-12-15T03:19:09.289Z,97871.11
2017-12-15T03:20:15.063Z,97871.11
2017-12-15T03:21:20.776Z,97868.09
2017-12-15T03:22:26.490Z,97865.55
2017-12-15T03:23:32.970Z,97861.70
2017-12-15T03:24:38.703Z,97865.30
2017-12-15T03:25:44.460Z,97859.24
2017-12-15T03:26:50.197Z,97861.33
2017-12-15T03:27:55.580Z,97859.83
2017-12-15T03:29:01.298Z,97864.50
2017-12-15T03:30:07.017Z,97857.82
2017-12-15T03:31:12.753Z,97857.31
2017-12-15T03:32:18.467Z,97856.34
2017-12-15T03:33:24.952Z,97856.81
2017-12-15T03:34:30.682Z,97852.16
2017-12-15T03:35:36.408Z,97855.59
2017-12-15T03:36:42.921Z,97850.87
2017-12-15T03:37:48.715Z,97855.22
2017-12-15T03:38:54.442Z,97855.47
2017-12-15T03:40:00.948Z,97853.75
2017-12-15T03:41:06.754Z,97849.73
2017-12-15T03:42:13.292Z,97857.30
2017-12-15T03:43:19.028Z,97856.66
2017-12-15T03:44:24.807Z,97855.30
2017-12-15T03:45:30.747Z,97851.69
2017-12-15T03:46:36.491Z,97855.02
2017-12-15T03:47:42.556Z,97855.36
2017-12-15T03:48:48.285Z,97853.06
2017-12-15T03:49:54.001Z,97856.78
2017-12-15T03:51:00.477Z,97854.14
2017-12-15T03:52:06.193Z,97853.00
2017-12-15T03:53:12.708Z,97863.20
2017-12-15T03:54:18.420Z,97864.33
2017-12-15T03:55:24.136Z,97858.97
2017-12-15T03:56:30.635Z,97859.13
2017-12-15T03:57:36.386Z,97852.80
2017-12-15T03:58:42.409Z,97862.45
2017-12-15T03:59:48.146Z,97861.16
2017-12-15T04:00:54.300Z,97860.19
2017-12-15T04:02:00.028Z,97856.87
2017-12-15T04:03:06.183Z,97860.08
2017-12-15T04:04:11.982Z,97858.48
2017-12-15T04:05:17.711Z,97858.80
2017-12-15T04:06:23.471Z,97860.42
2017-12-15T04:07:29.376Z,97870.68
2017-12-15T04:08:35.115Z,97859.79
2017-12-15T04:09:40.876Z,97861.70
2017-12-15T04:10:46.606Z,97859.39
2017-12-15T04:11:52.324Z,97867.96
2017-12-15T04:12:58.062Z,97862.23
2017-12-15T04:14:03.459Z,97853.42
2017-12-15T04:15:09.215Z,97864.47
2017-12-15T04:16:14.592Z,97857.98
2017-12-15T04:17:20.307Z,97867.80
2017-12-15T04:18:26.982Z,97864.05
2017-12-15T04:19:32.730Z,97865.58
2017-12-15T04:20:38.472Z,97862.86
2017-12-15T04:21:44.231Z,97863.14
2017-12-15T04:22:49.961Z,97863.05
2017-12-15T04:23:55.694Z,97860.33
2017-12-15T04:25:01.437Z,97864.54
2017-12-15T04:26:07.176Z,97867.51
2017-12-15T04:27:12.884Z,97859.30
2017-12-15T04:28:19.369Z,97858.79
2017-12-15T04:29:25.100Z,97860.34
2017-12-15T04:30:30.821Z,97859.77
2017-12-15T04:31:37.347Z,97860.61
2017-12-15T04:32:43.088Z,97865.11
2017-12-15T04:33:48.799Z,97859.45
2017-12-15T04:34:54.537Z,97861.17
2017-12-15T04:36:00.271Z,97861.63
2017-12-15T04:37:06.012Z,97858.98
2017-12-15T04:38:11.744Z,97863.50
2017-12-15T04:39:17.596Z,97863.91
2017-12-15T04:40:23.311Z,97867.72
2017-12-15T04:41:29.807Z,97864.06
2017-12-15T04:42:35.549Z,97872.81
2017-12-15T04:43:41.257Z,97871.85
2017-12-15T04:44:47.756Z,97870.83
2017-12-15T04:45:53.494Z,97872.55
2017-12-15T04:46:59.202Z,97871.44
2017-12-15T04:48:05.718Z,97870.47
2017-12-15T04:49:11.436Z,97873.35
2017-12-15T04:50:17.171Z,97878.03
2017-12-15T04:51:22.892Z,97870.42
2017-12-15T04:52:29.408Z,97873.44
2017-12-15T04:53:35.165Z,97879.43
2017-12-15T04:54:41.645Z,97878.08
2017-12-15T04:55:48.127Z,97882.44
2017-12-15T04:56:53.840Z,97887.13
2017-12-15T04:58:00.325Z,97882.30
2017-12-15T04:59:06.069Z,97891.02
2017-12-15T05:00:11.142Z,97887.91
2017-12-15T05:01:16.881Z,97884.02
2017-12-15T05:02:24.106Z,97884.53
2017-12-15T05:03:29.830Z,97882.20
2017-12-15T05:04:35.367Z,97883.75
2017-12-15T05:05:40.793Z,97890.92
2017-12-15T05:06:47.283Z,97892.13
2017-12-15T05:07:53.010Z,97893.05
2017-12-15T05:08:58.737Z,97891.55
2017-12-15T05:10:05.302Z,97892.67
2017-12-15T05:11:11.456Z,97893.45
2017-12-15T05:12:17.194Z,97897.72
2017-12-15T05:13:22.925Z,97895.89
2017-12-15T05:14:29.492Z,97899.30
2017-12-15T05:15:34.585Z,97897.09
2017-12-15T05:16:40.752Z,97899.59
2017-12-15T05:17:46.931Z,97900.20
2017-12-15T05:18:52.049Z,97898.95
2017-12-15T05:19:57.482Z,97904.43
2017-12-15T05:21:04.032Z,97901.09
2017-12-15T05:22:10.528Z,97902.20
2017-12-15T05:23:16.501Z,97904.48
2017-12-15T05:24:22.209Z,97902.30
2017-12-15T05:25:27.930Z,97902.86
2017-12-15T05:26:34.455Z,97906.28
2017-12-15T05:27:40.187Z,97909.09
2017-12-15T05:28:45.912Z,97905.39
2017-12-15T05:29:51.629Z,97907.58
2017-12-15T05:30:57.352Z,97906.41
2017-12-15T05:32:03.133Z,97910.02
2017-12-15T05:33:08.845Z,97911.32
2017-12-15T05:34:14.982Z,97907.75
2017-12-15T05:35:21.483Z,97911.18
2017-12-15T05:36:27.285Z,97914.14
2017-12-15T05:37:33.784Z,97920.41
2017-12-15T05:38:39.511Z,97918.50
2017-12-15T05:39:45.245Z,97921.25
2017-12-15T05:40:50.972Z,97918.55
2017-12-15T05:41:56.698Z,97922.67
2017-12-15T05:43:02.885Z,97919.73
2017-12-15T05:44:08.648Z,97926.47
2017-12-15T05:45:14.440Z,97923.52
2017-12-15T05:46:20.935Z,97921.48
2017-12-15T05:47:26.327Z,97925.38
2017-12-15T05:48:32.848Z,97926.67
2017-12-15T05:49:38.557Z,97924.35
2017-12-15T05:50:44.282Z,97921.76
2017-12-15T05:51:50.034Z,97926.39
2017-12-15T05:52:55.826Z,97926.91
2017-12-15T05:54:01.728Z,97931.31
2017-12-15T05:55:07.454Z,97930.73
2017-12-15T05:56:13.170Z,97929.88
2017-12-15T05:57:19.700Z,97930.07
2017-12-15T05:58:25.115Z,97933.96
2017-12-15T05:59:30.871Z,97933.75
2017-12-15T06:00:36.592Z,97929.03
2017-12-15T06:01:42.323Z,97932.39
2017-12-15T06:02:48.244Z,97940.88
2017-12-15T06:03:53.991Z,97933.41
2017-12-15T06:04:59.749Z,97935.59
2017-12-15T06:06:05.648Z,97934.91
2017-12-15T06:07:12.999Z,97939.55
2017-12-15T06:08:18.736Z,97943.73
2017-12-15T06:09:24.488Z,97942.71
2017-12-15T06:10:30.229Z,97944.77
2017-12-15T06:11:36.000Z,97943.78
2017-12-15T06:12:42.498Z,97942.91
2017-12-15T06:13:48.221Z,97942.91
2017-12-15T06:14:53.939Z,97947.56
2017-12-15T06:16:00.476Z,97949.19
2017-12-15T06:17:06.185Z,97949.60
2017-12-15T06:18:12.004Z,97951.92
2017-12-15T06:19:17.734Z,97949.66
2017-12-15T06:20:24.270Z,97949.75
2017-12-15T06:21:29.999Z,97953.22
2017-12-15T06:22:35.731Z,97954.64
2017-12-15T06:23:41.472Z,97951.45
2017-12-15T06:24:47.207Z,97951.09
2017-12-15T06:25:52.962Z,97959.56
2017-12-15T06:26:58.724Z,97962.92
2017-12-15T06:28:04.455Z,97960.33
2017-12-15T06:29:10.174Z,97964.08
2017-12-15T06:30:15.288Z,97964.13
2017-12-15T06:31:20.358Z,97968.53
2017-12-15T06:32:25.788Z,97961.72
2017-12-15T06:33:30.845Z,97966.91
2017-12-15T06:34:36.898Z,97971.02
2017-12-15T06:35:41.972Z,97969.56
2017-12-15T06:36:47.385Z,97975.42
2017-12-15T06:37:54.312Z,97973.52
2017-12-15T06:39:01.078Z,97976.23
2017-12-15T06:40:08.052Z,97980.59
2017-12-15T06:41:13.862Z,97987.11
2017-12-15T06:42:19.662Z,97986.23
2017-12-15T06:43:25.398Z,97988.86
2017-12-15T06:44:31.527Z,97985.34
2017-12-15T06:45:37.236Z,97987.98
2017-12-15T06:46:43.008Z,97992.59
2017-12-15T06:47:48.748Z,97990.83
2017-12-15T06:48:55.276Z,97995.77
2017-12-15T06:50:01.027Z,97997.39
2017-12-15T06:51:07.516Z,97996.12
2017-12-15T06:52:13.256Z,97997.00
2017-12-15T06:53:18.990Z,98001.77
2017-12-15T06:54:24.322Z,98003.37
2017-12-15T06:55:30.127Z,98003.84
2017-12-15T06:56:36.025Z,98008.94
2017-12-15T06:57:41.742Z,98006.64
2017-12-15T06:58:48.322Z,98008.44
2017-12-15T06:59:54.066Z,98015.22
2017-12-15T07:01:00.120Z,98010.23
2017-12-15T07:02:05.841Z,98009.45
2017-12-15T07:03:11.580Z,98016.39
2017-12-15T07:04:18.101Z,98015.77
2017-12-15T07:05:23.868Z,98017.55
2017-12-15T07:06:29.605Z,98020.86
2017-12-15T07:07:35.334Z,98026.60
2017-12-15T07:08:41.822Z,98028.98
2017-12-15T07:09:48.312Z,98023.33
2017-12-15T07:10:54.129Z,98025.75
2017-12-15T07:11:59.865Z,98031.69
2017-12-15T07:13:05.577Z,98028.22
2017-12-15T07:14:11.327Z,98031.23
2017-12-15T07:15:17.838Z,98031.57
2017-12-15T07:16:23.589Z,98037.48
2017-12-15T07:17:29.332Z,98032.06
2017-12-15T07:18:35.070Z,98038.77
2017-12-15T07:19:40.783Z,98044.79
2017-12-15T07:20:46.520Z,98038.82
2017-12-15T07:21:52.300Z,98041.53
2017-12-15T07:22:58.090Z,98046.44
2017-12-15T07:24:03.839Z,98049.03
2017-12-15T07:25:09.552Z,98043.30
2017-12-15T07:26:15.286Z,98051.67
2017-12-15T07:27:21.043Z,98054.14
2017-12-15T07:28:27.030Z,98052.38
2017-12-15T07:29:33.530Z,98054.14
2017-12-15T07:30:39.331Z,98052.00
2017-12-15T07:31:45.864Z,98052.72
2017-12-15T07:32:51.618Z,98054.94
2017-12-15T07:33:58.161Z,98061.05
2017-12-15T07:35:03.881Z,98058.50
2017-12-15T07:36:09.422Z,98060.17
2017-12-15T07:37:15.129Z,98070.09
2017-12-15T07:38:20.872Z,98069.12
2017-12-15T07:39:26.608Z,98065.07
2017-12-15T07:40:32.000Z,98065.61
2017-12-15T07:41:37.731Z,98067.78
2017-12-15T07:42:43.457Z,98073.81
2017-12-15T07:43:49.208Z,98072.48
2017-12-15T07:44:56.452Z,98080.84
2017-12-15T07:46:02.164Z,98076.03
2017-12-15T07:47:07.553Z,98080.30
2017-12-15T07:48:13.274Z,98082.65
2017-12-15T07:49:19.056Z,98084.83
2017-12-15T07:50:24.821Z,98082.77
2017-12-15T07:51:30.555Z,98086.24
2017-12-15T07:52:36.843Z,98092.06
2017-12-15T07:53:42.587Z,98091.61
2017-12-15T07:54:48.354Z,98095.50
2017-12-15T07:55:54.074Z,98102.31
2017-12-15T07:56:59.793Z,98101.81
2017-12-15T07:58:05.522Z,98101.94
2017-12-15T07:59:11.482Z,98107.76
2017-12-15T08:00:16.740Z,98113.33
2017-12-15T08:01:22.472Z,98113.20
2017-12-15T08:02:28.252Z,98114.62
2017-12-15T08:03:33.974Z,98111.58
2017-12-15T08:04:39.692Z,98117.23
2017-12-15T08:05:45.463Z,98121.78
2017-12-15T08:06:51.230Z,98123.80
2017-12-15T08:07:57.736Z,98125.09
2017-12-15T08:09:03.022Z,98125.42
2017-12-15T08:10:09.324Z,98125.68
2017-12-15T08:11:15.112Z,98124.45
2017-12-15T08:12:21.623Z,98124.38
2017-12-15T08:13:27.361Z,98127.60
2017-12-15T08:14:33.173Z,98127.98
2017-12-15T08:15:39.674Z,98128.28
2017-12-15T08:16:45.470Z,98125.80
2017-12-15T08:17:51.644Z,98128.56
2017-12-15T08:18:57.402Z,98130.19
2017-12-15T08:20:03.124Z,98130.74
2017-12-15T08:21:08.844Z,98135.19
2017-12-15T08:22:14.620Z,98137.19
2017-12-15T08:23:20.121Z,98130.45
2017-12-15T08:24:26.666Z,98138.62
2017-12-15T08:25:32.088Z,98138.70
2017-12-15T08:26:37.834Z,98145.36
2017-12-15T08:27:43.701Z,98148.16
2017-12-15T08:28:50.060Z,98149.50
2017-12-15T08:29:56.545Z,98150.59
2017-12-15T08:31:02.281Z,98146.19
2017-12-15T08:32:08.025Z,98151.38
2017-12-15T08:33:13.989Z,98154.19
2017-12-15T08:34:19.707Z,98157.99
2017-12-15T08:35:25.443Z,98158.37
2017-12-15T08:36:31.172Z,98156.19
2017-12-15T08:37:36.900Z,98160.01
2017-12-15T08:38:43.089Z,98163.22
2017-12-15T08:39:48.813Z,98157.95
2017-12-15T08:40:54.192Z,98166.08
2017-12-15T08:41:59.929Z,98170.26
2017-12-15T08:43:05.642Z,98174.08
2017-12-15T08:44:11.407Z,98172.06
2017-12-15T08:45:17.253Z,98181.06
2017-12-15T08:46:22.987Z,98182.24
2017-12-15T08:47:28.700Z,98187.06
2017-12-15T08:48:34.409Z,98187.06
2017-12-15T08:49:40.931Z,98192.46
2017-12-15T08:50:46.674Z,98194.77
2017-12-15T08:51:52.470Z,98199.38
2017-12-15T08:52:58.971Z,98200.64
2017-12-15T08:54:04.679Z,98210.61
2017-12-15T08:55:10.459Z,98215.34
2017-12-15T08:56:16.195Z,98217.56
2017-12-15T08:57:21.927Z,98217.48
2017-12-15T08:58:27.659Z,98217.55
2017-12-15T08:59:33.387Z,98221.75
2017-12-15T09:00:39.133Z,98224.02
2017-12-15T09:01:45.087Z,98222.46
2017-12-15T09:02:50.827Z,98228.09
2017-12-15T09:04:02.052Z,98220.96
2017-12-15T09:05:07.780Z,98227.09
2017-12-15T09:06:13.524Z,98230.81
2017-12-15T09:07:19.236Z,98230.88
2017-12-15T09:08:24.963Z,98231.67
2017-12-15T09:09:30.691Z,98242.12
2017-12-15T09:10:36.418Z,98241.86
2017-12-15T09:11:41.840Z,98238.19
2017-12-15T09:12:48.332Z,98242.30
2017-12-15T09:13:54.097Z,98246.75
2017-12-15T09:14:59.827Z,98251.49
2017-12-15T09:16:05.589Z,98252.15
2017-12-15T09:17:11.372Z,98258.69
2017-12-15T09:18:16.499Z,98255.13
2017-12-15T09:19:22.229Z,98261.42
2017-12-15T09:20:28.719Z,98265.84
2017-12-15T09:21:34.430Z,98267.30
2017-12-15T09:22:40.925Z,98271.95
2017-12-15T09:23:46.654Z,98274.65
2017-12-15T09:24:53.547Z,98275.17
2017-12-15T09:25:58.366Z,98275.45
2017-12-15T09:27:04.092Z,98279.36
2017-12-15T09:28:08.954Z,98284.72
2017-12-15T09:29:14.700Z,98281.98
2017-12-15T09:30:20.475Z,98286.97
2017-12-15T09:31:26.213Z,98286.50
2017-12-15T09:32:31.984Z,98286.97
2017-12-15T09:33:37.747Z,98284.78
2017-12-15T09:34:43.585Z,98289.67
2017-12-15T09:35:49.298Z,98286.02
2017-12-15T09:36:55.025Z,98286.67
2017-12-15T09:38:00.866Z,98289.47
2017-12-15T09:39:06.863Z,98287.23
2017-12-15T09:40:12.600Z,98287.84
2017-12-15T09:41:18.010Z,98290.21
2017-12-15T09:42:23.740Z,98288.64
2017-12-15T09:43:29.457Z,98300.05
2017-12-15T09:44:35.957Z,98298.70
2017-12-15T09:45:41.790Z,98304.47
2017-12-15T09:46:47.519Z,98296.34
2017-12-15T09:47:53.261Z,98308.17
2017-12-15T09:48:59.012Z,98307.58
2017-12-15T09:50:04.771Z,98311.50
2017-12-15T09:51:10.481Z,98312.30
2017-12-15T09:52:16.212Z,98313.09
2017-12-15T09:53:21.924Z,98305.16
2017-12-15T09:54:27.681Z,98306.66
2017-12-15T09:55:34.234Z,98308.23
2017-12-15T09:56:39.980Z,98297.95
2017-12-15T09:57:46.465Z,98303.67
2017-12-15T09:58:52.215Z,98298.49
2017-12-15T09:59:57.944Z,98299.53
2017-12-15T10:01:03.765Z,98298.83
2017-12-15T10:02:10.253Z,98299.52
2017-12-15T10:03:15.997Z,98297.50
2017-12-15T10:04:21.730Z,98298.61
2017-12-15T10:05:27.456Z,98301.95
2017-12-15T10:06:33.983Z,98303.97
2017-12-15T10:07:39.759Z,98307.03
2017-12-15T10:08:46.264Z,98306.31
2017-12-15T10:09:51.987Z,98311.41
2017-12-15T10:10:57.727Z,98314.77
2017-12-15T10:12:03.490Z,98318.09
2017-12-15T10:13:09.239Z,98318.53
2017-12-15T10:14:14.964Z,98322.02
2017-12-15T10:15:20.681Z,98320.97
2017-12-15T10:16:26.393Z,98325.46
2017-12-15T10:17:32.936Z,98320.18
2017-12-15T10:18:39.450Z,98331.56
2017-12-15T10:19:45.168Z,98325.67
2017-12-15T10:20:50.890Z,98332.92
2017-12-15T10:21:57.380Z,98335.27
2017-12-15T10:23:03.147Z,98330.88
2017-12-15T10:24:08.865Z,98335.58
2017-12-15T10:25:14.655Z,98335.83
2017-12-15T10:26:20.412Z,98328.47
2017-12-15T10:27:26.915Z,98337.52
2017-12-15T10:28:32.688Z,98337.20
2017-12-15T10:29:38.433Z,98328.14
2017-12-15T10:30:44.264Z,98328.53
2017-12-15T10:31:50.015Z,98327.26
2017-12-15T10:32:55.799Z,98330.94
2017-12-15T10:34:01.609Z,98335.34
2017-12-15T10:35:07.366Z,98333.52
2017-12-15T10:36:13.698Z,98342.36
2017-12-15T10:37:19.483Z,98341.11
2017-12-15T10:38:25.224Z,98340.83
2017-12-15T10:39:31.758Z,98336.24
2017-12-15T10:40:38.250Z,98347.03
2017-12-15T10:41:43.800Z,98341.19
2017-12-15T10:42:49.546Z,98347.00
2017-12-15T10:43:55.271Z,98350.80
2017-12-15T10:45:01.038Z,98345.61
2017-12-15T10:46:06.845Z,98349.44
2017-12-15T10:47:13.336Z,98348.22
2017-12-15T10:48:19.057Z,98346.31
2017-12-15T10:49:24.803Z,98351.19
2017-12-15T10:50:30.549Z,98349.34
2017-12-15T10:51:36.265Z,98354.73
2017-12-15T10:52:42.770Z,98350.78
2017-12-15T10:53:48.315Z,98348.08
2017-12-15T10:54:54.063Z,98353.17
2017-12-15T10:55:59.817Z,98347.87
2017-12-15T10:57:05.545Z,98354.42
2017-12-15T10:58:12.485Z,98354.74
2017-12-15T10:59:18.210Z,98358.65
2017-12-15T11:00:23.949Z,98364.70
2017-12-15T11:01:29.693Z,98363.14
2017-12-15T11:02:35.428Z,98361.58
2017-12-15T11:03:41.164Z,98362.55
2017-12-15T11:04:46.900Z,98363.06
2017-12-15T11:05:53.411Z,98370.74
2017-12-15T11:06:59.205Z,98368.41
2017-12-15T11:08:04.928Z,98371.98
2017-12-15T11:09:11.448Z,98366.40
2017-12-15T11:10:17.487Z,98365.23
2017-12-15T11:11:23.187Z,98372.05
2017-12-15T11:12:29.727Z,98368.63
2017-12-15T11:13:35.465Z,98372.95
2017-12-15T11:14:41.970Z,98370.37
2017-12-15T11:15:47.700Z,98369.06
2017-12-15T11:16:53.412Z,98374.32
2017-12-15T11:17:59.916Z,98381.25
2017-12-15T11:19:05.644Z,98377.23
2017-12-15T11:20:11.388Z,98383.99
2017-12-15T11:21:17.130Z,98380.34
2017-12-15T11:22:22.870Z,98384.95
2017-12-15T11:23:28.627Z,98389.61
2017-12-15T11:24:34.356Z,98392.50
2017-12-15T11:25:40.108Z,98389.63
2017-12-15T11:26:45.844Z,98393.78
2017-12-15T11:27:51.572Z,98396.95
2017-12-15T11:28:57.333Z,98395.47
2017-12-15T11:30:03.050Z,98397.12
2017-12-15T11:31:08.882Z,98393.09
2017-12-15T11:32:15.442Z,98392.92
2017-12-15T11:33:21.172Z,98393.34
2017-12-15T11:34:27.768Z,98397.31
2017-12-15T11:35:33.493Z,98398.15
2017-12-15T11:36:39.270Z,98391.47
2017-12-15T11:37:44.650Z,98391.11
2017-12-15T11:38:51.535Z,98396.84
2017-12-15T11:39:57.277Z,98395.13
2017-12-15T11:41:03.015Z,98395.30
2017-12-15T11:42:08.747Z,98397.64
2017-12-15T11:43:15.244Z,98403.33
2017-12-15T11:44:20.972Z,98406.97
2017-12-15T11:45:26.740Z,98399.66
2017-12-15T11:46:32.456Z,98404.67
2017-12-15T11:47:38.187Z,98404.03
2017-12-15T11:48:43.913Z,98404.31
2017-12-15T11:49:50.416Z,98399.33
2017-12-15T11:50:55.838Z,98406.40
2017-12-15T11:52:01.715Z,98408.90
2017-12-15T11:53:07.468Z,98400.25
2017-12-15T11:54:13.202Z,98403.52
2017-12-15T11:55:18.949Z,98404.77
2017-12-15T11:56:24.387Z,98401.28
2017-12-15T11:57:30.169Z,98405.34
2017-12-15T11:58:36.670Z,98409.59
2017-12-15T11:59:42.392Z,98407.69
2017-12-15T12:00:48.129Z,98409.88
2017-12-15T12:01:53.885Z,98410.86
2017-12-15T12:02:59.598Z,98406.63
2017-12-15T12:04:05.316Z,98406.77
2017-12-15T12:05:10.880Z,98409.06
2017-12-15T12:06:17.383Z,98400.63
2017-12-15T12:07:23.148Z,98405.75
2017-12-15T12:08:28.547Z,98409.89
2017-12-15T12:09:34.289Z,98405.12
2017-12-15T12:10:39.786Z,98409.05
2017-12-15T12:11:44.868Z,98407.27
2017-12-15T12:12:50.634Z,98408.34
2017-12-15T12:13:57.134Z,98402.13
2017-12-15T12:15:02.888Z,98404.62
2017-12-15T12:16:08.621Z,98404.19
2017-12-15T12:17:14.337Z,98400.92
2017-12-15T12:18:20.856Z,98400.50
2017-12-15T12:19:26.583Z,98396.02
2017-12-15T12:20:31.985Z,98397.66
2017-12-15T12:21:37.756Z,98400.03
2017-12-15T12:22:43.461Z,98395.58
2017-12-15T12:23:49.210Z,98395.95
2017-12-15T12:24:54.925Z,98391.31
2017-12-15T12:26:01.417Z,98390.23
2017-12-15T12:27:07.158Z,98390.76
2017-12-15T12:28:12.238Z,98391.84
2017-12-15T12:29:17.983Z,98391.75
2017-12-15T12:30:24.486Z,98391.23
2017-12-15T12:31:30.187Z,98389.80
2017-12-15T12:32:35.588Z,98393.56
2017-12-15T12:33:41.313Z,98392.63
2017-12-15T12:34:47.116Z,98395.48
2017-12-15T12:35:53.598Z,98396.42
2017-12-15T12:36:59.318Z,98384.81
2017-12-15T12:38:05.154Z,98388.13
2017-12-15T12:39:11.645Z,98389.16
2017-12-15T12:40:17.409Z,98390.42
2017-12-15T12:41:23.145Z,98391.35
2017-12-15T12:42:28.936Z,98399.50
2017-12-15T12:43:34.903Z,98389.02
2017-12-15T12:44:40.631Z,98393.25
2017-12-15T12:45:46.466Z,98388.03
2017-12-15T12:46:52.219Z,98387.73
2017-12-15T12:47:58.024Z,98384.09
2017-12-15T12:49:03.748Z,98381.99
2017-12-15T12:50:09.478Z,98372.53
2017-12-15T12:51:15.247Z,98374.59
2017-12-15T12:52:20.971Z,98376.77
2017-12-15T12:53:26.676Z,98373.73